Time;durP1;ratioP1;P1;durP2;ratioP2;P2;SDS_P1;SDS_P2;PMS_P1;PMS_P2;Temp;Humidity;BMP_temperature;BMP_pressure;BME280_temperature;BME280_humidity;BME280_pressure;Samples;Min_cycle;Max_cycle;Signal;HPM_P1;HPM_P2
2022/12/30 00:00:07;;;;;;;8.80;1.00;;;;;;;6.08;94.23;101054.38;5056080;27;106327;-31
2022/12/30 00:02:34;;;;;;;4.75;0.45;;;;;;;6.04;94.47;101058.13;5054738;27;96474;-31
2022/12/30 00:05:00;;;;;;;0.32;0.30;;;;;;;6.06;94.34;101058.06;5055267;27;96824;-31
2022/12/30 00:07:25;;;;;;;0.85;0.38;;;;;;;6.05;94.22;101051.81;5056318;27;99799;-30
2022/12/30 00:09:50;;;;;;;0.63;0.55;;;;;;;6.05;94.46;101056.31;5056442;27;97381;-30
2022/12/30 00:34:26;;;;;;;0.82;0.30;;;;;;;5.93;94.94;101053.16;5056525;27;96705;-30
2022/12/30 00:36:52;;;;;;;3.03;0.50;;;;;;;5.92;94.85;101056.75;5056325;27;96831;-31
2022/12/30 00:39:17;;;;;;;2.35;0.40;;;;;;;5.92;94.79;101062.13;5054071;27;101000;-31
2022/12/30 00:44:27;;;;;;;0.38;0.10;;;;;;;5.94;95.09;101060.31;5056132;27;96509;-30
2022/12/30 00:46:53;;;;;;;0.35;0.17;;;;;;;5.92;94.65;101053.19;5054675;27;96909;-32
2022/12/30 00:57:30;;;;;;;1.25;0.43;;;;;;;5.88;94.78;101060.50;5054800;27;97239;-30
2022/12/30 00:59:56;;;;;;;0.43;0.40;;;;;;;5.88;94.86;101065.00;5055236;27;109896;-31
2022/12/30 01:02:24;;;;;;;0.00;0.00;;;;;;;5.88;95.33;101065.88;5055460;27;97222;-30
2022/12/30 01:04:49;;;;;;;0.20;0.20;;;;;;;5.87;95.00;101066.81;5055954;27;96637;-31
2022/12/30 01:07:15;;;;;;;0.85;0.43;;;;;;;5.87;94.97;101064.13;5055769;27;96810;-31
2022/12/30 01:09:40;;;;;;;7.72;0.68;;;;;;;5.88;95.18;101071.25;5055177;27;102331;-30
2022/12/30 01:12:08;;;;;;;0.30;0.22;;;;;;;5.87;95.09;101074.88;5055185;27;106322;-31
2022/12/30 01:14:40;;;;;;;1.33;0.52;;;;;;;5.89;95.21;101072.16;5055464;27;96431;-32
2022/12/30 01:17:07;;;;;;;0.88;0.32;;;;;;;5.86;95.26;101085.69;5053969;27;96857;-30
2022/12/30 01:19:32;;;;;;;0.68;0.38;;;;;;;5.85;95.31;101098.25;5053207;27;101485;-31
2022/12/30 01:21:58;;;;;;;1.02;0.38;;;;;;;5.85;94.99;101097.38;5054686;27;99113;-30
2022/12/30 01:24:24;;;;;;;2.00;0.32;;;;;;;5.83;95.28;101100.13;5054896;27;96809;-30
2022/12/30 01:26:49;;;;;;;2.55;0.65;;;;;;;5.84;95.19;101106.38;5055286;27;96787;-31
2022/12/30 01:29:39;;;;;;;2.50;0.60;;;;;;;5.82;95.31;101111.81;5054829;27;105736;-31
2022/12/30 01:32:06;;;;;;;0.80;0.30;;;;;;;5.83;95.44;101110.00;5054924;27;98705;-32
2022/12/30 01:34:32;;;;;;;1.38;0.47;;;;;;;5.78;95.62;101110.16;5053751;27;96681;-32
2022/12/30 01:36:57;;;;;;;3.03;0.57;;;;;;;5.76;95.39;101106.66;5055654;27;96910;-31
2022/12/30 01:39:23;;;;;;;0.55;0.32;;;;;;;5.78;95.27;101107.50;5054990;27;97353;-31
2022/12/30 01:41:48;;;;;;;0.25;0.22;;;;;;;5.77;95.50;101108.44;5054881;27;97798;-30
2022/12/30 01:44:50;;;;;;;0.70;0.45;;;;;;;5.80;95.53;101100.25;5054807;27;96627;-31
2022/12/30 01:47:22;;;;;;;;;;;;;;;5.80;95.34;101094.00;5055350;27;96817;-31
2022/12/30 01:49:52;;;;;;;2.70;0.70;;;;;;;5.80;95.59;101099.38;5053479;27;100893;-30
2022/12/30 01:52:20;;;;;;;2.00;0.45;;;;;;;5.79;95.24;101102.97;5053208;27;100809;-30
2022/12/30 01:54:47;;;;;;;2.25;1.05;;;;;;;5.74;95.18;101092.41;5053509;27;96512;-30
2022/12/30 01:57:15;;;;;;;0.90;0.57;;;;;;;5.73;95.41;101098.72;5053600;27;96891;-30
2022/12/30 01:59:42;;;;;;;1.77;0.68;;;;;;;5.74;95.62;101103.16;5053200;27;101127;-33
2022/12/30 02:02:07;;;;;;;4.70;0.88;;;;;;;5.73;95.59;101094.22;5053664;27;100706;-31
2022/12/30 02:04:33;;;;;;;4.72;0.60;;;;;;;5.71;95.45;101096.09;5054987;27;96637;-32
2022/12/30 02:07:21;;;;;;;2.75;0.40;;;;;;;5.68;95.56;101081.91;5053446;27;96870;-31
2022/12/30 02:09:47;;;;;;;0.22;0.20;;;;;;;5.66;95.70;101078.38;5056398;27;101200;-30
2022/12/30 02:12:13;;;;;;;0.30;0.20;;;;;;;5.64;95.76;101075.75;5057942;27;99338;-31
2022/12/30 02:14:41;;;;;;;0.70;0.30;;;;;;;5.67;95.96;101088.19;5058275;27;96497;-30
2022/12/30 02:17:26;;;;;;;0.63;0.30;;;;;;;5.67;95.79;101081.03;5056937;27;96894;-32
2022/12/30 02:20:17;;;;;;;1.27;0.50;;;;;;;5.68;95.78;101085.44;5056443;27;100802;-30
2022/12/30 02:22:57;;;;;;;0.20;0.13;;;;;;;5.69;95.54;101080.94;5057311;27;97818;-30
2022/12/30 02:25:43;;;;;;;0.30;0.20;;;;;;;5.67;95.47;101085.50;5056849;27;96593;-30
2022/12/30 02:28:40;;;;;;;2.53;0.43;;;;;;;5.71;95.68;101076.41;5058893;27;96544;-30
2022/12/30 02:31:19;;;;;;;7.15;0.98;;;;;;;5.70;95.27;101072.84;5056204;27;100850;-30
2022/12/30 02:34:02;;;;;;;1.73;0.50;;;;;;;5.70;95.84;101072.84;5056289;27;101227;-30
2022/12/30 02:36:38;;;;;;;1.63;0.80;;;;;;;5.73;95.33;101077.22;5057371;27;96450;-30
2022/12/30 02:39:10;;;;;;;0.43;0.32;;;;;;;5.76;95.47;101077.09;5056667;27;96763;-30
2022/12/30 02:44:39;;;;;;;1.00;0.80;;;;;;;5.81;94.93;101064.34;5058010;27;97085;-30
2022/12/30 02:47:18;;;;;;;3.97;0.88;;;;;;;5.85;95.02;101076.75;5057696;27;96587;-30
2022/12/30 02:52:14;;;;;;;1.15;0.60;;;;;;;5.84;94.82;101064.25;5057350;27;97834;-30
2022/12/30 02:52:35;;;;;;;8.75;1.13;;;;;;;5.87;94.76;101064.13;5057307;27;98693;-32
2022/12/30 02:55:00;;;;;;;0.47;0.35;;;;;;;5.89;94.21;101061.41;5056334;27;101156;-31
2022/12/30 02:57:31;;;;;;;1.15;0.47;;;;;;;5.88;94.37;101059.63;5057544;27;97137;-30
2022/12/30 03:06:30;;;;;;;2.28;0.47;;;;;;;5.89;94.23;101048.81;5057846;27;96989;-30
2022/12/30 03:09:29;;;;;;;0.52;0.45;;;;;;;5.89;94.03;101047.94;5056182;27;96575;-30
2022/12/30 03:12:27;;;;;;;1.10;0.55;;;;;;;5.85;94.04;101044.50;5057602;27;96721;-30
2022/12/30 03:15:01;;;;;;;0.55;0.40;;;;;;;5.81;94.00;101039.28;5056997;27;97439;-30
2022/12/30 03:17:37;;;;;;;11.23;0.52;;;;;;;5.82;94.27;101044.63;5055654;27;100678;-31
2022/12/30 03:20:08;;;;;;;0.22;0.20;;;;;;;5.78;93.81;101034.03;5055089;27;96652;-33
2022/12/30 03:28:09;;;;;;;3.10;0.73;;;;;;;5.77;93.65;101040.34;5057362;27;97061;-32
2022/12/30 03:30:42;;;;;;;0.20;0.10;;;;;;;5.74;93.69;101049.41;5055243;27;96629;-31
2022/12/30 03:33:08;;;;;;;0.40;0.30;;;;;;;5.72;93.63;101032.44;5057693;27;96495;-30
2022/12/30 03:35:37;;;;;;;0.25;0.22;;;;;;;5.72;93.66;101038.72;5056692;27;97472;-31
2022/12/30 03:38:05;;;;;;;2.53;0.80;;;;;;;5.68;93.61;101023.66;5055105;27;100649;-30
2022/12/30 03:40:40;;;;;;;0.52;0.52;;;;;;;5.67;93.64;101029.06;5055518;27;96554;-30
2022/12/30 03:43:07;;;;;;;3.80;1.17;;;;;;;5.66;93.99;101038.06;5055474;27;96770;-30
2022/12/30 03:45:33;;;;;;;6.90;0.30;;;;;;;5.64;93.70;101026.50;5055109;27;101634;-30
2022/12/30 03:47:59;;;;;;;0.25;0.25;;;;;;;5.60;93.41;101033.81;5055639;27;100770;-30
2022/12/30 03:50:24;;;;;;;1.40;0.52;;;;;;;5.59;93.97;101025.81;5056683;27;96588;-32
2022/12/30 03:52:49;;;;;;;0.90;0.50;;;;;;;5.57;93.84;101033.91;5057009;27;96776;-32
2022/12/30 03:55:15;;;;;;;0.20;0.20;;;;;;;5.54;93.95;101028.66;5056030;27;98081;-30
2022/12/30 03:57:41;;;;;;;0.40;0.38;;;;;;;5.52;94.01;101026.03;5056325;27;99544;-30
2022/12/30 04:00:08;;;;;;;0.75;0.32;;;;;;;5.49;93.77;101020.78;5056703;27;96669;-31
2022/12/30 04:02:34;;;;;;;8.15;0.80;;;;;;;5.48;94.01;101019.03;5055389;27;96854;-31
2022/12/30 04:04:59;;;;;;;0.93;0.52;;;;;;;5.53;94.09;101022.44;5056359;27;97987;-31
2022/12/30 04:07:25;;;;;;;0.60;0.50;;;;;;;5.52;93.79;101014.41;5056414;27;97846;-31
2022/12/30 04:09:50;;;;;;;2.60;0.85;;;;;;;5.49;93.68;101014.53;5056587;27;96632;-31
2022/12/30 04:12:15;;;;;;;0.20;0.20;;;;;;;5.47;94.03;101011.91;5055372;27;96839;-31
2022/12/30 04:14:41;;;;;;;1.02;0.32;;;;;;;5.47;93.69;101019.09;5055986;27;103522;-30
2022/12/30 04:17:06;;;;;;;5.70;0.73;;;;;;;5.46;93.92;101014.66;5055920;27;98659;-31
2022/12/30 04:19:31;;;;;;;1.13;0.75;;;;;;;5.46;93.86;101018.22;5055402;27;97779;-30
2022/12/30 04:21:57;;;;;;;1.23;0.38;;;;;;;5.45;93.96;101013.75;5055699;27;96832;-30
2022/12/30 04:24:22;;;;;;;0.98;0.55;;;;;;;5.45;93.92;101020.94;5055665;27;110607;-31
2022/12/30 04:26:47;;;;;;;0.43;0.40;;;;;;;5.46;94.01;101030.78;5055828;27;98808;-31
2022/12/30 04:29:13;;;;;;;2.17;0.65;;;;;;;5.41;94.20;101022.00;5056410;27;96797;-31
2022/12/30 04:31:38;;;;;;;0.43;0.32;;;;;;;5.42;94.05;101030.00;5055034;27;96769;-32
2022/12/30 04:34:03;;;;;;;2.63;0.77;;;;;;;5.39;94.35;101031.94;5055106;27;99259;-30
2022/12/30 04:36:28;;;;;;;1.90;0.90;;;;;;;5.38;94.15;101016.75;5056332;27;97245;-31
2022/12/30 04:38:55;;;;;;;2.13;0.77;;;;;;;5.34;94.16;101018.69;5055970;27;96514;-32
2022/12/30 04:41:21;;;;;;;3.35;1.52;;;;;;;5.31;94.21;101025.06;5054732;27;96828;-30
2022/12/30 04:43:47;;;;;;;1.02;0.77;;;;;;;5.28;94.07;101022.44;5055419;27;97659;-30
2022/12/30 04:46:12;;;;;;;1.55;0.70;;;;;;;5.27;94.18;101020.72;5055751;27;97500;-30
2022/12/30 04:48:38;;;;;;;0.73;0.45;;;;;;;5.26;93.98;101008.19;5055880;27;96654;-33
2022/12/30 04:51:03;;;;;;;1.20;0.35;;;;;;;5.24;94.18;101009.19;5056215;27;96449;-30
2022/12/30 04:53:29;;;;;;;2.33;1.02;;;;;;;5.23;94.41;101000.28;5055412;27;100207;-30
2022/12/30 04:55:56;;;;;;;0.77;0.38;;;;;;;5.23;94.70;101002.09;5055600;27;97235;-30
2022/12/30 04:58:21;;;;;;;0.70;0.47;;;;;;;5.19;94.66;101001.31;5054143;27;96703;-30
2022/12/30 05:00:48;;;;;;;1.25;0.40;;;;;;;5.22;94.33;100989.56;5054661;27;96796;-31
2022/12/30 05:03:13;;;;;;;2.47;0.45;;;;;;;5.19;94.38;100992.38;5053922;27;100850;-30
2022/12/30 05:05:39;;;;;;;1.08;0.60;;;;;;;5.18;94.62;101002.25;5055812;27;97266;-31
2022/12/30 05:08:05;;;;;;;0.82;0.55;;;;;;;5.13;94.55;100989.94;5055034;27;97734;-30
2022/12/30 05:10:33;;;;;;;1.08;0.43;;;;;;;5.10;94.75;100990.91;5055694;27;96802;-31
2022/12/30 05:12:58;;;;;;;1.23;0.70;;;;;;;5.13;94.65;100995.31;5053809;27;100913;-31
2022/12/30 05:15:23;;;;;;;1.27;0.47;;;;;;;5.08;94.97;100992.78;5055596;27;97202;-31
2022/12/30 05:17:49;;;;;;;3.42;0.80;;;;;;;5.10;94.62;100993.59;5055051;27;98057;-31
2022/12/30 05:20:14;;;;;;;1.45;0.70;;;;;;;5.10;94.80;101002.53;5055544;27;96905;-30
2022/12/30 05:22:39;;;;;;;0.68;0.68;;;;;;;5.10;94.80;101002.53;5054473;27;97911;-30
2022/12/30 05:27:49;;;;;;;0.95;0.40;;;;;;;5.06;94.88;100989.28;5055600;27;96583;-30
2022/12/30 05:30:14;;;;;;;0.85;0.57;;;;;;;5.07;94.76;101001.75;5055389;27;96489;-31
2022/12/30 05:32:40;;;;;;;1.50;0.57;;;;;;;5.05;94.65;100992.88;5054352;27;99325;-32
2022/12/30 05:35:06;;;;;;;6.90;1.10;;;;;;;5.02;94.92;100980.44;5054465;27;104371;-30
2022/12/30 05:37:31;;;;;;;1.98;0.77;;;;;;;5.02;94.74;100980.44;5055181;27;96575;-31
2022/12/30 05:39:56;;;;;;;0.63;0.40;;;;;;;5.00;95.00;100976.06;5054728;27;103138;-30
2022/12/30 05:42:21;;;;;;;1.38;0.70;;;;;;;4.97;95.01;100978.88;5054498;27;97876;-32
2022/12/30 05:44:47;;;;;;;0.55;0.32;;;;;;;4.95;94.98;100984.28;5054526;27;100688;-31
2022/12/30 05:47:12;;;;;;;1.30;0.15;;;;;;;4.90;95.09;100983.59;5055251;27;96532;-32
2022/12/30 05:49:37;;;;;;;0.75;0.60;;;;;;;4.86;95.42;100973.88;5055677;27;96661;-30
2022/12/30 05:52:03;;;;;;;1.45;0.32;;;;;;;4.84;95.56;100960.53;5054210;27;111116;-32
2022/12/30 05:54:28;;;;;;;3.78;1.83;;;;;;;4.83;95.90;100969.50;5054797;27;97155;-30
2022/12/30 05:56:53;;;;;;;0.38;0.35;;;;;;;4.84;95.87;100968.59;5054708;27;96397;-31
2022/12/30 05:59:18;;;;;;;2.83;0.70;;;;;;;4.81;95.87;100959.75;5054529;27;96842;-30
2022/12/30 06:01:44;;;;;;;0.60;0.57;;;;;;;4.78;95.75;100946.47;5054640;27;97436;-31
2022/12/30 06:04:09;;;;;;;1.45;0.98;;;;;;;4.79;96.10;100950.88;5054377;27;99394;-31
2022/12/30 06:06:35;;;;;;;0.90;0.60;;;;;;;4.76;96.29;100937.59;5055104;27;96429;-31
2022/12/30 06:09:00;;;;;;;2.60;1.05;;;;;;;4.77;96.23;100940.22;5054908;27;96775;-30
2022/12/30 06:11:25;;;;;;;1.52;0.50;;;;;;;4.75;96.25;100935.84;5054718;27;97666;-31
2022/12/30 06:13:50;;;;;;;11.13;0.40;;;;;;;4.71;96.68;100942.25;5054967;27;99784;-32
2022/12/30 06:16:16;;;;;;;1.13;0.52;;;;;;;4.75;96.52;100954.63;5054417;27;98274;-30
2022/12/30 06:18:41;;;;;;;0.85;0.57;;;;;;;4.76;96.60;100942.94;5054899;27;96758;-30
2022/12/30 06:21:07;;;;;;;5.38;0.63;;;;;;;4.77;96.40;100936.66;5053916;27;98037;-31
2022/12/30 06:23:32;;;;;;;5.88;0.85;;;;;;;4.72;96.54;100926.09;5053831;27;97678;-30
2022/12/30 06:25:58;;;;;;;5.93;1.05;;;;;;;4.71;96.46;100934.19;5054724;27;96504;-30
2022/12/30 06:28:26;;;;;;;2.17;0.77;;;;;;;4.68;96.42;100922.63;5053230;27;96793;-31
2022/12/30 06:30:52;;;;;;;3.92;0.90;;;;;;;4.65;96.98;100920.06;5054342;27;97367;-30
2022/12/30 06:33:18;;;;;;;1.88;0.98;;;;;;;4.63;97.05;100927.28;5054459;27;97813;-30
2022/12/30 06:35:45;;;;;;;2.97;0.65;;;;;;;4.64;96.67;100926.34;5052774;27;96538;-31
2022/12/30 06:38:10;;;;;;;0.68;0.35;;;;;;;4.64;96.97;100918.31;5053412;27;96797;-30
2022/12/30 06:40:35;;;;;;;0.28;0.10;;;;;;;4.60;97.06;100911.31;5054061;27;107053;-30
2022/12/30 06:43:01;;;;;;;0.55;0.40;;;;;;;4.62;97.17;100893.38;5054216;27;99826;-31
2022/12/30 06:45:27;;;;;;;2.38;1.33;;;;;;;4.61;97.25;100886.22;5053928;27;96519;-31
2022/12/30 06:47:52;;;;;;;0.40;0.38;;;;;;;4.60;97.24;100878.22;5054488;27;96782;-30
2022/12/30 06:50:20;;;;;;;1.92;0.47;;;;;;;4.62;97.41;100879.06;5053712;27;99360;-30
2022/12/30 06:52:45;;;;;;;0.60;0.50;;;;;;;4.58;97.88;100878.31;5054089;27;97856;-31
2022/12/30 06:55:11;;;;;;;1.25;0.65;;;;;;;4.59;98.02;100880.03;5055565;27;96746;-30
2022/12/30 06:57:36;;;;;;;0.90;0.65;;;;;;;4.60;97.73;100873.75;5058056;27;96622;-31
2022/12/30 07:00:04;;;;;;;1.35;0.70;;;;;;;4.59;97.86;100865.75;5057456;27;97914;-31
2022/12/30 07:02:30;;;;;;;1.85;0.70;;;;;;;4.63;98.17;100865.59;5056263;27;101366;-30
2022/12/30 07:04:55;;;;;;;0.45;0.45;;;;;;;4.62;97.85;100854.91;5057510;27;99002;-30
2022/12/30 07:07:20;;;;;;;0.47;0.28;;;;;;;4.67;97.78;100850.25;5057380;27;96840;-30
2022/12/30 07:09:46;;;;;;;0.63;0.50;;;;;;;4.67;97.76;100855.59;5056433;27;106355;-30
2022/12/30 07:12:11;;;;;;;1.90;0.45;;;;;;;4.68;98.06;100849.31;5057332;27;97855;-30
2022/12/30 07:14:36;;;;;;;2.53;0.55;;;;;;;4.66;97.64;100844.00;5057130;27;96572;-31
2022/12/30 07:17:02;;;;;;;0.82;0.32;;;;;;;4.65;98.09;100830.69;5057735;27;96739;-31
2022/12/30 07:19:27;;;;;;;3.33;1.10;;;;;;;4.70;97.83;100839.41;5056603;27;110635;-30
2022/12/30 07:21:53;;;;;;;1.70;1.10;;;;;;;4.71;97.83;100821.50;5056579;27;99110;-30
2022/12/30 07:24:18;;;;;;;1.73;0.47;;;;;;;4.70;97.95;100823.31;5057442;27;96560;-30
2022/12/30 07:26:44;;;;;;;0.30;0.30;;;;;;;4.71;97.90;100825.06;5057324;27;103870;-32
2022/12/30 07:29:09;;;;;;;1.15;0.63;;;;;;;4.68;98.20;100818.00;5056805;27;99119;-31
2022/12/30 07:31:34;;;;;;;3.42;1.65;;;;;;;4.69;98.17;100813.50;5056732;27;106373;-31
2022/12/30 07:33:59;;;;;;;1.38;0.65;;;;;;;4.67;98.12;100813.59;5056421;27;96677;-31
2022/12/30 07:36:25;;;;;;;4.45;0.52;;;;;;;4.70;98.15;100806.34;5057297;27;96875;-31
2022/12/30 07:38:50;;;;;;;0.75;0.38;;;;;;;4.70;97.96;100811.72;5056685;27;100352;-30
2022/12/30 07:41:15;;;;;;;1.40;0.82;;;;;;;4.67;98.53;100800.16;5056849;27;97778;-31
2022/12/30 07:43:41;;;;;;;0.43;0.30;;;;;;;4.71;97.90;100808.09;5056935;27;96847;-31
2022/12/30 07:46:08;;;;;;;3.80;0.70;;;;;;;4.72;98.15;100809.81;5057219;27;96825;-30
2022/12/30 07:48:34;;;;;;;4.60;0.63;;;;;;;4.73;98.21;100814.28;5055213;27;98834;-32
2022/12/30 07:51:08;;;;;;;1.08;0.73;;;;;;;4.73;98.11;100804.41;5055565;27;100792;-31
2022/12/30 07:53:33;;;;;;;0.20;0.20;;;;;;;4.79;98.42;100795.25;5057386;27;96563;-30
2022/12/30 07:56:01;;;;;;;2.10;0.73;;;;;;;4.78;97.89;100785.47;5056949;27;96823;-30
2022/12/30 07:58:26;;;;;;;2.40;1.15;;;;;;;4.79;98.63;100780.03;5055923;27;97480;-30
2022/12/30 08:00:52;;;;;;;0.32;0.22;;;;;;;4.80;98.70;100763.00;5056102;27;110933;-31
2022/12/30 08:03:17;;;;;;;2.08;0.98;;;;;;;4.86;98.57;100772.59;5056424;27;96581;-31
2022/12/30 08:05:42;;;;;;;0.73;0.40;;;;;;;4.87;98.74;100756.44;5056054;27;97532;-31
2022/12/30 08:08:08;;;;;;;1.10;0.80;;;;;;;4.90;98.58;100761.69;5055962;27;106435;-33
2022/12/30 08:10:33;;;;;;;1.25;0.88;;;;;;;4.97;98.12;100756.97;5056331;27;97960;-30
2022/12/30 08:12:58;;;;;;;1.38;0.77;;;;;;;4.96;98.70;100751.63;5056023;27;98165;-31
2022/12/30 08:15:24;;;;;;;1.98;1.27;;;;;;;5.01;98.34;100749.69;5056455;27;102513;-32
2022/12/30 08:17:49;;;;;;;2.65;0.35;;;;;;;5.00;98.65;100737.16;5055964;27;99242;-30
2022/12/30 08:20:15;;;;;;;0.55;0.50;;;;;;;5.04;98.82;100749.53;5056159;27;97744;-31
2022/12/30 08:22:40;;;;;;;1.92;1.20;;;;;;;5.08;98.28;100760.09;5055592;27;96756;-30
2022/12/30 08:25:06;;;;;;;0.93;0.52;;;;;;;5.11;98.52;100745.66;5056251;27;96627;-32
2022/12/30 08:27:32;;;;;;;2.95;0.73;;;;;;;5.11;98.14;100749.22;5054640;27;101522;-31
2022/12/30 08:29:58;;;;;;;1.15;0.63;;;;;;;5.16;98.68;100743.66;5054516;27;101217;-31
2022/12/30 08:32:23;;;;;;;0.55;0.30;;;;;;;5.18;98.55;100735.56;5056246;27;96544;-31
2022/12/30 08:34:48;;;;;;;1.48;0.93;;;;;;;5.22;98.24;100750.59;5056242;27;96774;-30
2022/12/30 08:37:14;;;;;;;1.52;0.50;;;;;;;5.25;98.48;100750.50;5056057;27;97862;-30
2022/12/30 08:39:39;;;;;;;3.95;0.73;;;;;;;5.29;98.16;100738.66;5056159;27;97814;-31
2022/12/30 08:42:04;;;;;;;0.47;0.38;;;;;;;5.29;97.99;100739.56;5055923;27;96720;-30
2022/12/30 08:44:29;;;;;;;0.75;0.38;;;;;;;5.30;98.04;100735.06;5056326;27;96777;-31
2022/12/30 08:46:55;;;;;;;0.80;0.73;;;;;;;5.34;97.72;100736.69;5055228;27;97314;-30
2022/12/30 08:49:20;;;;;;;3.25;0.75;;;;;;;5.36;97.86;100729.41;5055724;27;97437;-30
2022/12/30 08:51:46;;;;;;;1.05;0.50;;;;;;;5.37;97.63;100738.38;5055737;27;96594;-31
2022/12/30 08:54:12;;;;;;;2.40;1.27;;;;;;;5.38;97.88;100713.25;5054424;27;96815;-30
2022/12/30 08:56:39;;;;;;;0.65;0.38;;;;;;;5.38;97.58;100715.94;5055477;27;97954;-31
2022/12/30 08:59:05;;;;;;;1.45;0.80;;;;;;;5.40;97.68;100711.38;5053997;27;101157;-31
2022/12/30 09:01:33;;;;;;;0.77;0.32;;;;;;;5.40;97.60;100704.16;5054357;27;96550;-31
2022/12/30 09:03:59;;;;;;;0.60;0.52;;;;;;;5.41;97.84;100703.25;5054713;27;96808;-31
2022/12/30 09:06:27;;;;;;;1.00;0.60;;;;;;;5.44;97.81;100692.38;5053855;27;101709;-30
2022/12/30 09:08:54;;;;;;;13.45;1.35;;;;;;;5.44;97.53;100687.00;5053706;27;100920;-30
2022/12/30 09:11:24;;;;;;;2.30;1.88;;;;;;;5.49;97.65;100686.81;5053650;27;96629;-30
2022/12/30 09:13:51;;;;;;;0.75;0.43;;;;;;;5.49;97.47;100684.97;5054262;27;96834;-30
2022/12/30 09:16:18;;;;;;;2.08;0.70;;;;;;;5.50;97.70;100686.72;5053770;27;100630;-32
2022/12/30 09:18:44;;;;;;;1.50;0.93;;;;;;;5.51;97.61;100679.56;5052758;27;100569;-30
2022/12/30 09:21:10;;;;;;;1.70;0.45;;;;;;;5.55;97.38;100675.78;5053886;27;96700;-33
2022/12/30 09:23:36;;;;;;;1.98;0.82;;;;;;;5.53;97.38;100666.94;5054776;27;96776;-30
2022/12/30 09:26:02;;;;;;;0.98;0.47;;;;;;;5.60;97.20;100675.56;5053661;27;100775;-31
2022/12/30 09:28:28;;;;;;;1.30;0.60;;;;;;;5.58;97.43;100658.63;5054025;27;101161;-30
2022/12/30 09:30:53;;;;;;;0.32;0.32;;;;;;;5.61;97.21;100648.66;5055514;27;96476;-30
2022/12/30 09:33:18;;;;;;;0.63;0.52;;;;;;;5.61;97.39;100642.41;5055427;27;96794;-30
2022/12/30 09:35:44;;;;;;;3.40;0.98;;;;;;;5.64;97.32;100640.44;5054276;27;97988;-30
2022/12/30 09:38:09;;;;;;;3.08;0.85;;;;;;;5.63;96.98;100629.78;5054785;27;98988;-31
2022/12/30 09:40:59;;;;;;;0.25;0.25;;;;;;;5.69;96.90;100632.19;5055309;27;96497;-30
2022/12/30 09:43:45;;;;;;;3.58;0.75;;;;;;;5.72;97.01;100611.44;5053934;27;96712;-30
2022/12/30 09:46:38;;;;;;;2.47;1.00;;;;;;;5.76;96.77;100612.16;5054778;27;99229;-31
2022/12/30 09:49:38;;;;;;;3.92;1.15;;;;;;;5.79;96.50;100612.00;5054998;27;97829;-31
2022/12/30 09:52:14;;;;;;;0.75;0.52;;;;;;;5.83;96.10;100605.56;5046279;27;96820;-31
2022/12/30 09:54:48;;;;;;;0.50;0.25;;;;;;;5.85;95.94;100600.97;5053960;27;96679;-31
2022/12/30 09:57:32;;;;;;;1.40;0.68;;;;;;;5.89;95.87;100601.72;5053443;27;101011;-31
2022/12/30 10:00:04;;;;;;;1.00;0.40;;;;;;;5.93;95.74;100592.56;5054709;27;97974;-32
2022/12/30 10:02:48;;;;;;;1.23;0.73;;;;;;;5.95;95.67;100588.00;5053219;27;97337;-30
2022/12/30 10:05:14;;;;;;;0.85;0.55;;;;;;;5.98;95.28;100590.56;5053550;27;96686;-31
2022/12/30 10:07:42;;;;;;;0.90;0.52;;;;;;;6.02;95.38;100578.72;5054329;27;99248;-30
2022/12/30 10:10:25;;;;;;;1.35;0.40;;;;;;;6.04;95.03;100568.78;5054599;27;97291;-31
2022/12/30 10:13:09;;;;;;;1.08;0.65;;;;;;;6.08;94.84;100548.88;5055020;27;96474;-30
2022/12/30 10:16:18;;;;;;;1.63;0.38;;;;;;;6.14;94.78;100551.25;5053403;27;96725;-30
2022/12/30 10:18:52;;;;;;;0.28;0.25;;;;;;;6.16;95.17;100545.81;5054141;27;99483;-31
2022/12/30 10:21:42;;;;;;;0.63;0.30;;;;;;;6.19;94.77;100536.72;5054338;27;99169;-30
2022/12/30 10:24:27;;;;;;;0.47;0.38;;;;;;;6.21;94.83;100529.44;5052963;27;96789;-30
2022/12/30 10:26:55;;;;;;;1.92;0.57;;;;;;;6.23;94.85;100517.66;5053351;27;96722;-31
2022/12/30 10:29:30;;;;;;;0.85;0.60;;;;;;;6.24;94.46;100514.00;5054051;27;103084;-31
2022/12/30 10:31:57;;;;;;;2.42;0.82;;;;;;;6.27;94.73;100511.19;5056337;27;100912;-31
2022/12/30 10:34:30;;;;;;;0.10;0.10;;;;;;;6.27;94.79;100491.47;5056364;27;96807;-30
2022/12/30 10:37:16;;;;;;;0.30;0.22;;;;;;;6.29;94.74;100476.13;5056704;27;96928;-31
2022/12/30 10:39:46;;;;;;;0.32;0.32;;;;;;;6.32;94.64;100479.56;5056350;27;101128;-31
2022/12/30 10:42:36;;;;;;;1.13;0.43;;;;;;;6.34;94.65;100452.56;5056312;27;100925;-32
2022/12/30 10:45:19;;;;;;;1.50;0.70;;;;;;;6.40;94.67;100448.72;5057852;27;96561;-30
2022/12/30 10:47:50;;;;;;;0.70;0.60;;;;;;;6.41;94.75;100439.69;5058490;27;96515;-31
2022/12/30 10:50:22;;;;;;;0.97;0.53;;;;;;;6.43;94.63;100432.41;5057599;27;98287;-32
2022/12/30 10:52:48;;;;;;;0.20;0.20;;;;;;;6.43;94.81;100410.88;5057378;27;97984;-31
2022/12/30 10:55:25;;;;;;;0.22;0.20;;;;;;;6.46;94.56;100394.56;5057264;27;96602;-31
2022/12/30 10:57:56;;;;;;;1.65;0.95;;;;;;;6.48;94.49;100381.91;5057802;27;97182;-31
2022/12/30 11:00:23;;;;;;;2.42;0.75;;;;;;;6.52;94.52;100367.38;5055558;27;100825;-30
2022/12/30 11:02:58;;;;;;;2.63;1.05;;;;;;;6.55;94.59;100365.41;5055822;27;100707;-31
2022/12/30 11:05:39;;;;;;;0.80;0.60;;;;;;;6.59;94.42;100358.88;5057725;27;96607;-31
2022/12/30 11:08:18;;;;;;;2.50;0.82;;;;;;;6.61;94.04;100349.88;5054079;27;97077;-31
2022/12/30 11:10:57;;;;;;;2.90;0.93;;;;;;;6.64;93.99;100339.81;5053791;27;100867;-30
2022/12/30 11:16:06;;;;;;;2.17;1.15;;;;;;;6.69;93.89;100308.13;5057364;27;96591;-31
2022/12/30 11:18:33;;;;;;;1.33;0.60;;;;;;;6.72;93.84;100312.47;5056243;27;97325;-32
2022/12/30 11:20:59;;;;;;;0.52;0.25;;;;;;;6.75;93.84;100315.03;5052431;27;102150;-31
2022/12/30 11:23:34;;;;;;;0.95;0.38;;;;;;;6.76;93.54;100290.69;5052357;27;101172;-32
2022/12/30 11:26:02;;;;;;;0.65;0.20;;;;;;;6.80;93.42;100296.78;5053234;27;97193;-32
2022/12/30 11:28:34;;;;;;;3.55;0.40;;;;;;;6.81;93.30;100282.38;5053194;27;97500;-31
2022/12/30 11:31:04;;;;;;;1.20;0.40;;;;;;;6.84;93.11;100273.25;5052916;27;100803;-31
2022/12/30 11:33:34;;;;;;;3.30;1.17;;;;;;;6.88;93.20;100253.28;5053935;27;100911;-30
2022/12/30 11:36:17;;;;;;;1.55;0.30;;;;;;;6.95;93.01;100243.91;5056782;27;96691;-31
2022/12/30 11:38:46;;;;;;;3.15;0.50;;;;;;;6.97;93.37;100236.63;5057250;27;96897;-30
2022/12/30 11:41:17;;;;;;;1.85;0.73;;;;;;;6.95;93.85;100225.06;5054383;27;100802;-31
2022/12/30 11:44:00;;;;;;;0.55;0.40;;;;;;;6.97;93.77;100209.69;5056827;27;97919;-30
2022/12/30 11:46:41;;;;;;;3.53;1.17;;;;;;;6.99;94.02;100200.56;5056593;27;96570;-31
2022/12/30 11:49:27;;;;;;;0.13;0.08;;;;;;;6.98;94.50;100180.00;5056814;27;96785;-30
2022/12/30 11:51:56;;;;;;;0.75;0.52;;;;;;;6.98;95.05;100168.34;5055292;27;100847;-32
2022/12/30 11:54:27;;;;;;;0.55;0.40;;;;;;;6.97;95.32;100148.63;5056665;27;97256;-30
2022/12/30 11:56:59;;;;;;;1.63;0.23;;;;;;;6.97;95.42;100154.03;5055429;27;96743;-31
2022/12/30 11:59:38;;;;;;;1.45;0.88;;;;;;;7.00;95.92;100155.66;5056581;27;96748;-31
2022/12/30 12:02:30;;;;;;;1.83;0.55;;;;;;;7.02;96.18;100140.28;5054953;27;98975;-30
2022/12/30 12:04:55;;;;;;;2.17;0.60;;;;;;;7.03;96.41;100136.63;5047900;27;99076;-32
2022/12/30 12:07:25;;;;;;;1.40;1.25;;;;;;;7.01;96.58;100127.81;5056532;27;96472;-30
2022/12/30 12:10:05;;;;;;;2.83;0.60;;;;;;;7.07;96.84;100127.44;5055362;27;96817;-31
2022/12/30 12:12:57;;;;;;;1.48;0.68;;;;;;;7.08;97.09;100126.47;5054356;27;100665;-31
2022/12/30 12:15:34;;;;;;;0.52;0.50;;;;;;;7.11;97.52;100114.66;5047381;27;98048;-31
2022/12/30 12:18:12;;;;;;;0.00;0.00;;;;;;;7.14;97.89;100109.94;5056523;27;96673;-30
2022/12/30 12:21:12;;;;;;;1.02;0.30;;;;;;;7.17;97.74;100096.28;5054604;27;96841;-31
2022/12/30 12:24:13;;;;;;;0.25;0.15;;;;;;;7.14;98.32;100087.53;5055611;27;97937;-30
2022/12/30 12:26:42;;;;;;;3.15;0.47;;;;;;;7.16;98.66;100064.94;5054590;27;100651;-30
2022/12/30 12:29:12;;;;;;;2.80;0.63;;;;;;;7.18;98.87;100051.41;5054642;27;96760;-31
2022/12/30 12:32:06;;;;;;;2.20;0.95;;;;;;;7.19;99.33;100034.25;5056507;27;96779;-31
2022/12/30 12:35:12;;;;;;;8.75;0.50;;;;;;;7.21;99.36;100014.34;5041855;27;98079;-32
2022/12/30 12:38:08;;;;;;;2.95;0.52;;;;;;;7.27;99.59;99993.38;5055964;27;97843;-31